sensor_id;sensor_type;location;lat;lon;timestamp;P1;durP1;ratioP1;P2;durP2;ratioP2
38037;SDS011;23843;51.320;12.340;2022-11-15T05:32:38;5.73;;;4.00;;
38037;SDS011;23843;51.320;12.340;2022-11-15T05:35:04;3.87;;;3.17;;
38037;SDS011;23843;51.320;12.340;2022-11-15T05:37:33;5.03;;;3.80;;
38037;SDS011;23843;51.320;12.340;2022-11-15T05:39:59;4.77;;;3.43;;
38037;SDS011;23843;51.320;12.340;2022-11-15T05:42:24;4.87;;;3.40;;
38037;SDS011;23843;51.320;12.340;2022-11-15T05:44:52;8.00;;;6.10;;
38037;SDS011;23843;51.320;12.340;2022-11-15T05:47:19;8.10;;;5.80;;
38037;SDS011;23843;51.320;12.340;2022-11-15T05:49:48;8.57;;;6.37;;
38037;SDS011;23843;51.320;12.340;2022-11-15T05:52:17;9.87;;;7.13;;
38037;SDS011;23843;51.320;12.340;2022-11-15T05:54:46;7.43;;;5.50;;
38037;SDS011;23843;51.320;12.340;2022-11-15T05:57:12;9.30;;;6.50;;
38037;SDS011;23843;51.320;12.340;2022-11-15T05:59:38;7.70;;;5.67;;
38037;SDS011;23843;51.320;12.340;2022-11-15T06:02:03;6.90;;;5.50;;
38037;SDS011;23843;51.320;12.340;2022-11-15T06:04:29;6.53;;;4.83;;
38037;SDS011;23843;51.320;12.340;2022-11-15T06:06:55;5.10;;;3.97;;
38037;SDS011;23843;51.320;12.340;2022-11-15T06:09:23;7.47;;;5.23;;
38037;SDS011;23843;51.320;12.340;2022-11-15T06:11:48;7.23;;;4.90;;
38037;SDS011;23843;51.320;12.340;2022-11-15T06:14:14;4.67;;;3.30;;
38037;SDS011;23843;51.320;12.340;2022-11-15T06:16:39;4.07;;;3.20;;
38037;SDS011;23843;51.320;12.340;2022-11-15T06:19:05;7.80;;;5.60;;
38037;SDS011;23843;51.320;12.340;2022-11-15T06:21:31;6.67;;;4.90;;
38037;SDS011;23843;51.320;12.340;2022-11-15T06:23:58;6.67;;;4.50;;
38037;SDS011;23843;51.320;12.340;2022-11-15T06:26:23;5.80;;;4.10;;
38037;SDS011;23843;51.320;12.340;2022-11-15T06:28:49;7.20;;;5.07;;
38037;SDS011;23843;51.320;12.340;2022-11-15T06:31:22;5.03;;;3.93;;
38037;SDS011;23843;51.320;12.340;2022-11-15T06:33:48;4.97;;;3.70;;
38037;SDS011;23843;51.320;12.340;2022-11-15T06:36:14;5.40;;;4.37;;
38037;SDS011;23843;51.320;12.340;2022-11-15T06:38:39;8.77;;;5.73;;
38037;SDS011;23843;51.320;12.340;2022-11-15T06:41:06;10.20;;;6.50;;
38037;SDS011;23843;51.320;12.340;2022-11-15T06:43:34;8.23;;;5.70;;
38037;SDS011;23843;51.320;12.340;2022-11-15T06:46:00;5.90;;;4.20;;
38037;SDS011;23843;51.320;12.340;2022-11-15T06:48:26;4.10;;;3.03;;
38037;SDS011;23843;51.320;12.340;2022-11-15T06:50:51;3.17;;;2.30;;
38037;SDS011;23843;51.320;12.340;2022-11-15T06:53:20;11.13;;;5.57;;
38037;SDS011;23843;51.320;12.340;2022-11-15T06:55:46;6.60;;;4.80;;
38037;SDS011;23843;51.320;12.340;2022-11-15T06:58:13;6.97;;;5.20;;
38037;SDS011;23843;51.320;12.340;2022-11-15T07:00:39;8.17;;;5.63;;
38037;SDS011;23843;51.320;12.340;2022-11-15T07:03:04;7.20;;;5.00;;
38037;SDS011;23843;51.320;12.340;2022-11-15T07:05:30;7.23;;;5.40;;
38037;SDS011;23843;51.320;12.340;2022-11-15T07:07:55;6.33;;;4.27;;
38037;SDS011;23843;51.320;12.340;2022-11-15T07:10:22;4.70;;;3.60;;
38037;SDS011;23843;51.320;12.340;2022-11-15T07:12:48;4.57;;;3.40;;
38037;SDS011;23843;51.320;12.340;2022-11-15T07:15:15;5.43;;;3.97;;
38037;SDS011;23843;51.320;12.340;2022-11-15T07:17:41;7.80;;;5.70;;
38037;SDS011;23843;51.320;12.340;2022-11-15T07:20:07;6.87;;;5.07;;
38037;SDS011;23843;51.320;12.340;2022-11-15T07:22:32;5.93;;;4.27;;
38037;SDS011;23843;51.320;12.340;2022-11-15T07:24:58;5.03;;;3.60;;
38037;SDS011;23843;51.320;12.340;2022-11-15T07:27:23;3.63;;;2.60;;
38037;SDS011;23843;51.320;12.340;2022-11-15T07:29:49;3.23;;;2.50;;
38037;SDS011;23843;51.320;12.340;2022-11-15T07:32:15;3.13;;;2.27;;
38037;SDS011;23843;51.320;12.340;2022-11-15T07:34:41;3.97;;;2.90;;
38037;SDS011;23843;51.320;12.340;2022-11-15T07:37:07;2.40;;;2.17;;
38037;SDS011;23843;51.320;12.340;2022-11-15T07:39:32;2.40;;;2.20;;
38037;SDS011;23843;51.320;12.340;2022-11-15T07:41:58;2.47;;;2.03;;
38037;SDS011;23843;51.320;12.340;2022-11-15T07:44:24;3.40;;;3.10;;
38037;SDS011;23843;51.320;12.340;2022-11-15T07:46:50;5.13;;;3.97;;
38037;SDS011;23843;51.320;12.340;2022-11-15T07:49:17;5.80;;;3.97;;
38037;SDS011;23843;51.320;12.340;2022-11-15T07:51:42;5.30;;;3.87;;
38037;SDS011;23843;51.320;12.340;2022-11-15T07:54:09;4.17;;;3.67;;
38037;SDS011;23843;51.320;12.340;2022-11-15T07:56:34;4.30;;;3.43;;
38037;SDS011;23843;51.320;12.340;2022-11-15T07:58:59;3.50;;;2.97;;
38037;SDS011;23843;51.320;12.340;2022-11-15T08:01:25;2.97;;;2.67;;
38037;SDS011;23843;51.320;12.340;2022-11-15T08:03:50;2.10;;;1.90;;
38037;SDS011;23843;51.320;12.340;2022-11-15T08:06:17;2.50;;;2.17;;
38037;SDS011;23843;51.320;12.340;2022-11-15T08:08:42;3.30;;;2.60;;
38037;SDS011;23843;51.320;12.340;2022-11-15T08:11:08;3.33;;;3.03;;
38037;SDS011;23843;51.320;12.340;2022-11-15T08:13:33;3.10;;;2.70;;
38037;SDS011;23843;51.320;12.340;2022-11-15T08:15:59;2.53;;;2.33;;
38037;SDS011;23843;51.320;12.340;2022-11-15T08:18:25;1.97;;;1.80;;
38037;SDS011;23843;51.320;12.340;2022-11-15T08:20:50;3.70;;;2.53;;
38037;SDS011;23843;51.320;12.340;2022-11-15T08:23:17;2.50;;;2.30;;
38037;SDS011;23843;51.320;12.340;2022-11-15T08:25:43;2.80;;;2.47;;
38037;SDS011;23843;51.320;12.340;2022-11-15T08:28:09;4.27;;;3.00;;
38037;SDS011;23843;51.320;12.340;2022-11-15T08:30:36;3.07;;;2.70;;
38037;SDS011;23843;51.320;12.340;2022-11-15T08:33:03;2.30;;;2.10;;
38037;SDS011;23843;51.320;12.340;2022-11-15T08:35:28;3.25;;;2.88;;
38037;SDS011;23843;51.320;12.340;2022-11-15T08:37:54;3.40;;;3.10;;
38037;SDS011;23843;51.320;12.340;2022-11-15T08:40:21;2.60;;;2.40;;
38037;SDS011;23843;51.320;12.340;2022-11-15T08:42:46;2.58;;;2.15;;
38037;SDS011;23843;51.320;12.340;2022-11-15T08:45:12;2.03;;;1.83;;
38037;SDS011;23843;51.320;12.340;2022-11-15T08:47:38;3.78;;;3.22;;
38037;SDS011;23843;51.320;12.340;2022-11-15T08:50:03;3.20;;;2.90;;
38037;SDS011;23843;51.320;12.340;2022-11-15T08:52:30;3.83;;;3.03;;
38037;SDS011;23843;51.320;12.340;2022-11-15T08:54:55;4.20;;;2.90;;
38037;SDS011;23843;51.320;12.340;2022-11-15T08:57:22;3.30;;;2.87;;
38037;SDS011;23843;51.320;12.340;2022-11-15T08:59:47;2.90;;;2.60;;
38037;SDS011;23843;51.320;12.340;2022-11-15T09:02:13;3.57;;;3.00;;
38037;SDS011;23843;51.320;12.340;2022-11-15T09:04:39;2.60;;;1.80;;
38037;SDS011;23843;51.320;12.340;2022-11-15T09:07:05;2.37;;;2.10;;
38037;SDS011;23843;51.320;12.340;2022-11-15T09:09:30;3.73;;;3.23;;
38037;SDS011;23843;51.320;12.340;2022-11-15T09:11:56;2.43;;;2.20;;
38037;SDS011;23843;51.320;12.340;2022-11-15T09:14:23;2.50;;;1.83;;
38037;SDS011;23843;51.320;12.340;2022-11-15T09:16:48;3.50;;;2.70;;
38037;SDS011;23843;51.320;12.340;2022-11-15T09:19:13;3.63;;;2.50;;
38037;SDS011;23843;51.320;12.340;2022-11-15T09:21:39;5.53;;;3.40;;
38037;SDS011;23843;51.320;12.340;2022-11-15T09:24:04;4.27;;;3.40;;
38037;SDS011;23843;51.320;12.340;2022-11-15T09:26:30;3.73;;;3.10;;
38037;SDS011;23843;51.320;12.340;2022-11-15T09:28:55;4.20;;;3.50;;
38037;SDS011;23843;51.320;12.340;2022-11-15T09:31:22;3.33;;;2.80;;
38037;SDS011;23843;51.320;12.340;2022-11-15T09:33:48;2.60;;;2.07;;
38037;SDS011;23843;51.320;12.340;2022-11-15T09:36:13;2.37;;;2.10;;
38037;SDS011;23843;51.320;12.340;2022-11-15T09:38:38;2.30;;;2.00;;
38037;SDS011;23843;51.320;12.340;2022-11-15T09:41:13;2.60;;;2.13;;
38037;SDS011;23843;51.320;12.340;2022-11-15T09:44:02;3.47;;;2.40;;
38037;SDS011;23843;51.320;12.340;2022-11-15T09:46:42;2.57;;;2.20;;
38037;SDS011;23843;51.320;12.340;2022-11-15T09:49:13;2.33;;;2.00;;
38037;SDS011;23843;51.320;12.340;2022-11-15T09:51:41;2.50;;;2.00;;
38037;SDS011;23843;51.320;12.340;2022-11-15T09:54:10;4.60;;;2.83;;
38037;SDS011;23843;51.320;12.340;2022-11-15T09:56:41;2.90;;;2.57;;
38037;SDS011;23843;51.320;12.340;2022-11-15T10:02:01;2.90;;;2.30;;
38037;SDS011;23843;51.320;12.340;2022-11-15T10:04:48;1.70;;;1.43;;
38037;SDS011;23843;51.320;12.340;2022-11-15T10:07:16;1.37;;;1.20;;
38037;SDS011;23843;51.320;12.340;2022-11-15T10:09:47;1.30;;;1.20;;
38037;SDS011;23843;51.320;12.340;2022-11-15T10:12:16;1.80;;;1.60;;
38037;SDS011;23843;51.320;12.340;2022-11-15T10:14:42;2.50;;;1.53;;
38037;SDS011;23843;51.320;12.340;2022-11-15T10:17:21;2.77;;;1.80;;
38037;SDS011;23843;51.320;12.340;2022-11-15T10:20:10;3.80;;;2.40;;
38037;SDS011;23843;51.320;12.340;2022-11-15T10:22:44;1.57;;;1.40;;
38037;SDS011;23843;51.320;12.340;2022-11-15T10:25:21;1.70;;;1.60;;
38037;SDS011;23843;51.320;12.340;2022-11-15T10:27:53;1.60;;;1.50;;
38037;SDS011;23843;51.320;12.340;2022-11-15T10:30:20;3.23;;;2.37;;
38037;SDS011;23843;51.320;12.340;2022-11-15T10:32:47;3.60;;;2.60;;
38037;SDS011;23843;51.320;12.340;2022-11-15T10:35:21;2.60;;;2.17;;
38037;SDS011;23843;51.320;12.340;2022-11-15T10:37:49;2.00;;;1.80;;
38037;SDS011;23843;51.320;12.340;2022-11-15T10:40:16;2.20;;;2.00;;
38037;SDS011;23843;51.320;12.340;2022-11-15T10:42:43;2.77;;;1.90;;
38037;SDS011;23843;51.320;12.340;2022-11-15T10:45:22;3.30;;;2.70;;
38037;SDS011;23843;51.320;12.340;2022-11-15T10:47:50;3.40;;;2.53;;
38037;SDS011;23843;51.320;12.340;2022-11-15T10:50:27;2.83;;;2.37;;
38037;SDS011;23843;51.320;12.340;2022-11-15T10:52:54;1.87;;;1.60;;
38037;SDS011;23843;51.320;12.340;2022-11-15T10:55:21;1.57;;;1.40;;
38037;SDS011;23843;51.320;12.340;2022-11-15T10:57:51;3.90;;;2.07;;
38037;SDS011;23843;51.320;12.340;2022-11-15T11:00:26;2.00;;;1.80;;
38037;SDS011;23843;51.320;12.340;2022-11-15T11:02:59;3.20;;;2.37;;
38037;SDS011;23843;51.320;12.340;2022-11-15T11:05:27;2.57;;;2.10;;
38037;SDS011;23843;51.320;12.340;2022-11-15T11:07:55;2.10;;;1.90;;
38037;SDS011;23843;51.320;12.340;2022-11-15T11:10:22;2.97;;;1.77;;
38037;SDS011;23843;51.320;12.340;2022-11-15T11:12:48;1.73;;;1.63;;
38037;SDS011;23843;51.320;12.340;2022-11-15T11:15:14;1.63;;;1.53;;
38037;SDS011;23843;51.320;12.340;2022-11-15T11:17:45;2.07;;;1.63;;
38037;SDS011;23843;51.320;12.340;2022-11-15T11:20:24;2.63;;;1.90;;
38037;SDS011;23843;51.320;12.340;2022-11-15T11:22:58;3.03;;;2.40;;
38037;SDS011;23843;51.320;12.340;2022-11-15T11:25:30;2.20;;;1.80;;
38037;SDS011;23843;51.320;12.340;2022-11-15T11:28:06;1.80;;;1.40;;
38037;SDS011;23843;51.320;12.340;2022-11-15T11:30:42;1.70;;;1.30;;
38037;SDS011;23843;51.320;12.340;2022-11-15T11:33:16;3.30;;;1.60;;
38037;SDS011;23843;51.320;12.340;2022-11-15T11:35:50;1.40;;;1.20;;
38037;SDS011;23843;51.320;12.340;2022-11-15T11:38:33;1.40;;;1.20;;
38037;SDS011;23843;51.320;12.340;2022-11-15T11:41:09;2.03;;;1.80;;
38037;SDS011;23843;51.320;12.340;2022-11-15T11:43:41;1.20;;;1.00;;
38037;SDS011;23843;51.320;12.340;2022-11-15T11:46:19;1.27;;;1.10;;
38037;SDS011;23843;51.320;12.340;2022-11-15T11:48:56;2.97;;;2.60;;
38037;SDS011;23843;51.320;12.340;2022-11-15T11:51:28;3.73;;;2.40;;
38037;SDS011;23843;51.320;12.340;2022-11-15T11:54:00;3.50;;;2.70;;
38037;SDS011;23843;51.320;12.340;2022-11-15T11:56:31;4.13;;;2.83;;
38037;SDS011;23843;51.320;12.340;2022-11-15T11:59:00;2.23;;;1.93;;
38037;SDS011;23843;51.320;12.340;2022-11-15T12:01:32;4.53;;;3.13;;
38037;SDS011;23843;51.320;12.340;2022-11-15T12:04:01;2.97;;;2.50;;
38037;SDS011;23843;51.320;12.340;2022-11-15T12:06:35;4.67;;;3.00;;
38037;SDS011;23843;51.320;12.340;2022-11-15T12:09:07;6.27;;;3.33;;
38037;SDS011;23843;51.320;12.340;2022-11-15T12:11:42;2.90;;;2.47;;
38037;SDS011;23843;51.320;12.340;2022-11-15T12:14:16;1.90;;;1.63;;
38037;SDS011;23843;51.320;12.340;2022-11-15T12:16:49;1.83;;;1.63;;
38037;SDS011;23843;51.320;12.340;2022-11-15T12:19:15;2.47;;;2.00;;
38037;SDS011;23843;51.320;12.340;2022-11-15T12:21:43;2.37;;;2.00;;
38037;SDS011;23843;51.320;12.340;2022-11-15T12:24:14;2.43;;;1.90;;
38037;SDS011;23843;51.320;12.340;2022-11-15T12:26:45;2.70;;;2.00;;
38037;SDS011;23843;51.320;12.340;2022-11-15T12:29:15;2.40;;;1.93;;
38037;SDS011;23843;51.320;12.340;2022-11-15T12:31:44;2.57;;;2.20;;
38037;SDS011;23843;51.320;12.340;2022-11-15T12:34:16;2.07;;;1.77;;
38037;SDS011;23843;51.320;12.340;2022-11-15T12:37:00;1.63;;;1.30;;
38037;SDS011;23843;51.320;12.340;2022-11-15T12:42:38;1.70;;;1.40;;
38037;SDS011;23843;51.320;12.340;2022-11-15T12:45:22;1.57;;;1.30;;
38037;SDS011;23843;51.320;12.340;2022-11-15T12:47:49;0.87;;;0.87;;
38037;SDS011;23843;51.320;12.340;2022-11-15T12:50:15;1.97;;;1.30;;
38037;SDS011;23843;51.320;12.340;2022-11-15T12:55:37;2.10;;;1.40;;
38037;SDS011;23843;51.320;12.340;2022-11-15T13:00:53;1.13;;;1.00;;
38037;SDS011;23843;51.320;12.340;2022-11-15T13:03:23;1.40;;;1.20;;
38037;SDS011;23843;51.320;12.340;2022-11-15T13:05:53;0.83;;;0.83;;
38037;SDS011;23843;51.320;12.340;2022-11-15T13:08:42;0.80;;;0.80;;
38037;SDS011;23843;51.320;12.340;2022-11-15T13:17:30;0.80;;;0.77;;
38037;SDS011;23843;51.320;12.340;2022-11-15T13:19:59;1.17;;;1.07;;
38037;SDS011;23843;51.320;12.340;2022-11-15T13:22:27;0.50;;;0.50;;
38037;SDS011;23843;51.320;12.340;2022-11-15T13:25:03;0.77;;;0.77;;
38037;SDS011;23843;51.320;12.340;2022-11-15T13:27:41;1.27;;;1.10;;
38037;SDS011;23843;51.320;12.340;2022-11-15T13:30:12;1.20;;;1.10;;
38037;SDS011;23843;51.320;12.340;2022-11-15T13:32:41;1.50;;;1.00;;
38037;SDS011;23843;51.320;12.340;2022-11-15T13:35:06;1.20;;;1.00;;
38037;SDS011;23843;51.320;12.340;2022-11-15T13:37:32;1.37;;;1.20;;
38037;SDS011;23843;51.320;12.340;2022-11-15T13:40:09;2.80;;;1.80;;
38037;SDS011;23843;51.320;12.340;2022-11-15T13:42:45;1.57;;;1.10;;
38037;SDS011;23843;51.320;12.340;2022-11-15T13:45:11;2.37;;;1.53;;
38037;SDS011;23843;51.320;12.340;2022-11-15T13:47:39;2.17;;;1.60;;
38037;SDS011;23843;51.320;12.340;2022-11-15T13:50:05;2.33;;;1.43;;
38037;SDS011;23843;51.320;12.340;2022-11-15T13:52:31;1.80;;;1.60;;
38037;SDS011;23843;51.320;12.340;2022-11-15T13:55:01;2.07;;;1.80;;
38037;SDS011;23843;51.320;12.340;2022-11-15T13:57:29;2.63;;;1.80;;
38037;SDS011;23843;51.320;12.340;2022-11-15T14:00:03;1.63;;;1.30;;
38037;SDS011;23843;51.320;12.340;2022-11-15T14:02:31;1.47;;;0.97;;
38037;SDS011;23843;51.320;12.340;2022-11-15T14:04:58;1.90;;;1.00;;
38037;SDS011;23843;51.320;12.340;2022-11-15T14:07:27;1.23;;;0.90;;
38037;SDS011;23843;51.320;12.340;2022-11-15T14:09:52;0.80;;;0.80;;
38037;SDS011;23843;51.320;12.340;2022-11-15T14:12:26;1.80;;;1.13;;
38037;SDS011;23843;51.320;12.340;2022-11-15T14:14:53;2.50;;;1.77;;
38037;SDS011;23843;51.320;12.340;2022-11-15T14:17:21;2.17;;;1.63;;
38037;SDS011;23843;51.320;12.340;2022-11-15T14:19:59;2.20;;;1.80;;
38037;SDS011;23843;51.320;12.340;2022-11-15T14:22:25;1.97;;;1.27;;
38037;SDS011;23843;51.320;12.340;2022-11-15T14:25:05;3.37;;;2.60;;
38037;SDS011;23843;51.320;12.340;2022-11-15T14:27:38;1.60;;;1.37;;
38037;SDS011;23843;51.320;12.340;2022-11-15T14:30:04;1.20;;;1.10;;
38037;SDS011;23843;51.320;12.340;2022-11-15T14:32:42;1.87;;;1.50;;
38037;SDS011;23843;51.320;12.340;2022-11-15T14:35:12;1.43;;;1.27;;
38037;SDS011;23843;51.320;12.340;2022-11-15T14:37:40;3.83;;;2.73;;
38037;SDS011;23843;51.320;12.340;2022-11-15T14:40:05;4.87;;;3.40;;
38037;SDS011;23843;51.320;12.340;2022-11-15T14:42:32;5.57;;;3.10;;
38037;SDS011;23843;51.320;12.340;2022-11-15T14:44:57;3.33;;;2.63;;
38037;SDS011;23843;51.320;12.340;2022-11-15T14:47:23;2.97;;;2.20;;
38037;SDS011;23843;51.320;12.340;2022-11-15T14:49:50;1.57;;;1.40;;
38037;SDS011;23843;51.320;12.340;2022-11-15T14:52:25;1.50;;;1.27;;
38037;SDS011;23843;51.320;12.340;2022-11-15T14:54:51;2.10;;;1.53;;
38037;SDS011;23843;51.320;12.340;2022-11-15T14:57:17;1.77;;;1.20;;
38037;SDS011;23843;51.320;12.340;2022-11-15T14:59:42;1.10;;;1.00;;
38037;SDS011;23843;51.320;12.340;2022-11-15T15:02:09;1.43;;;0.80;;
38037;SDS011;23843;51.320;12.340;2022-11-15T15:04:40;1.00;;;0.90;;
38037;SDS011;23843;51.320;12.340;2022-11-15T15:07:07;1.23;;;1.13;;
38037;SDS011;23843;51.320;12.340;2022-11-15T15:09:33;1.20;;;1.10;;
38037;SDS011;23843;51.320;12.340;2022-11-15T15:11:58;1.53;;;1.20;;
38037;SDS011;23843;51.320;12.340;2022-11-15T15:14:23;1.13;;;0.80;;
38037;SDS011;23843;51.320;12.340;2022-11-15T15:16:49;1.63;;;1.00;;
38037;SDS011;23843;51.320;12.340;2022-11-15T15:19:14;0.93;;;0.80;;
38037;SDS011;23843;51.320;12.340;2022-11-15T15:21:40;1.10;;;0.87;;
38037;SDS011;23843;51.320;12.340;2022-11-15T15:24:07;0.60;;;0.60;;
38037;SDS011;23843;51.320;12.340;2022-11-15T15:26:38;0.83;;;0.70;;
38037;SDS011;23843;51.320;12.340;2022-11-15T15:29:04;0.83;;;0.80;;
38037;SDS011;23843;51.320;12.340;2022-11-15T15:31:29;1.10;;;0.90;;
38037;SDS011;23843;51.320;12.340;2022-11-15T15:33:55;1.03;;;0.90;;
38037;SDS011;23843;51.320;12.340;2022-11-15T15:36:20;1.20;;;1.10;;
38037;SDS011;23843;51.320;12.340;2022-11-15T15:38:45;1.03;;;0.90;;
38037;SDS011;23843;51.320;12.340;2022-11-15T15:41:13;0.70;;;0.70;;
38037;SDS011;23843;51.320;12.340;2022-11-15T15:43:40;0.80;;;0.70;;
38037;SDS011;23843;51.320;12.340;2022-11-15T15:46:07;0.90;;;0.70;;
38037;SDS011;23843;51.320;12.340;2022-11-15T15:48:34;0.60;;;0.50;;
38037;SDS011;23843;51.320;12.340;2022-11-15T15:50:59;0.93;;;0.70;;
38037;SDS011;23843;51.320;12.340;2022-11-15T15:53:24;1.73;;;1.20;;
38037;SDS011;23843;51.320;12.340;2022-11-15T15:55:50;1.17;;;0.93;;
38037;SDS011;23843;51.320;12.340;2022-11-15T15:58:17;0.73;;;0.70;;
38037;SDS011;23843;51.320;12.340;2022-11-15T16:00:42;0.60;;;0.60;;
38037;SDS011;23843;51.320;12.340;2022-11-15T16:03:08;0.60;;;0.60;;
38037;SDS011;23843;51.320;12.340;2022-11-15T16:05:33;0.60;;;0.50;;
38037;SDS011;23843;51.320;12.340;2022-11-15T16:07:58;0.50;;;0.50;;
38037;SDS011;23843;51.320;12.340;2022-11-15T16:10:25;0.40;;;0.40;;
38037;SDS011;23843;51.320;12.340;2022-11-15T16:12:51;0.53;;;0.53;;
38037;SDS011;23843;51.320;12.340;2022-11-15T16:15:19;0.57;;;0.57;;
38037;SDS011;23843;51.320;12.340;2022-11-15T16:17:47;1.23;;;1.00;;
38037;SDS011;23843;51.320;12.340;2022-11-15T16:20:20;2.00;;;1.57;;
38037;SDS011;23843;51.320;12.340;2022-11-15T16:22:53;1.90;;;1.40;;
38037;SDS011;23843;51.320;12.340;2022-11-15T16:25:18;1.43;;;1.30;;
38037;SDS011;23843;51.320;12.340;2022-11-15T16:27:43;1.63;;;1.30;;
38037;SDS011;23843;51.320;12.340;2022-11-15T16:30:10;1.43;;;1.03;;
38037;SDS011;23843;51.320;12.340;2022-11-15T16:32:38;1.17;;;0.80;;
38037;SDS011;23843;51.320;12.340;2022-11-15T16:35:04;1.03;;;0.80;;
38037;SDS011;23843;51.320;12.340;2022-11-15T16:37:30;0.60;;;0.53;;
38037;SDS011;23843;51.320;12.340;2022-11-15T16:39:55;0.73;;;0.73;;
38037;SDS011;23843;51.320;12.340;2022-11-15T16:42:21;0.83;;;0.60;;
38037;SDS011;23843;51.320;12.340;2022-11-15T16:44:46;0.63;;;0.60;;
38037;SDS011;23843;51.320;12.340;2022-11-15T16:47:15;0.80;;;0.70;;
38037;SDS011;23843;51.320;12.340;2022-11-15T16:49:43;1.13;;;0.90;;
38037;SDS011;23843;51.320;12.340;2022-11-15T16:52:08;1.30;;;0.87;;
38037;SDS011;23843;51.320;12.340;2022-11-15T16:54:34;1.43;;;1.00;;
38037;SDS011;23843;51.320;12.340;2022-11-15T16:56:59;1.20;;;0.70;;
38037;SDS011;23843;51.320;12.340;2022-11-15T16:59:25;1.57;;;0.90;;
38037;SDS011;23843;51.320;12.340;2022-11-15T17:01:50;0.80;;;0.70;;
38037;SDS011;23843;51.320;12.340;2022-11-15T17:04:16;1.60;;;1.47;;
38037;SDS011;23843;51.320;12.340;2022-11-15T17:06:45;0.80;;;0.77;;
38037;SDS011;23843;51.320;12.340;2022-11-15T17:09:12;1.40;;;1.30;;
38037;SDS011;23843;51.320;12.340;2022-11-15T17:11:39;1.33;;;0.93;;
38037;SDS011;23843;51.320;12.340;2022-11-15T17:14:05;1.40;;;1.20;;
38037;SDS011;23843;51.320;12.340;2022-11-15T17:16:30;1.70;;;1.40;;
38037;SDS011;23843;51.320;12.340;2022-11-15T17:18:55;1.27;;;1.17;;
38037;SDS011;23843;51.320;12.340;2022-11-15T17:21:21;1.57;;;1.20;;
38037;SDS011;23843;51.320;12.340;2022-11-15T17:23:48;1.60;;;1.27;;
38037;SDS011;23843;51.320;12.340;2022-11-15T17:26:14;2.10;;;1.50;;
38037;SDS011;23843;51.320;12.340;2022-11-15T17:28:40;1.87;;;1.40;;
38037;SDS011;23843;51.320;12.340;2022-11-15T17:31:06;1.40;;;1.10;;
38037;SDS011;23843;51.320;12.340;2022-11-15T17:33:32;1.47;;;1.30;;
38037;SDS011;23843;51.320;12.340;2022-11-15T17:35:58;1.43;;;1.20;;
38037;SDS011;23843;51.320;12.340;2022-11-15T17:38:25;2.00;;;1.40;;
38037;SDS011;23843;51.320;12.340;2022-11-15T17:41:02;1.77;;;1.30;;
38037;SDS011;23843;51.320;12.340;2022-11-15T17:43:33;1.63;;;1.10;;
38037;SDS011;23843;51.320;12.340;2022-11-15T17:45:59;1.30;;;1.10;;
38037;SDS011;23843;51.320;12.340;2022-11-15T17:48:28;2.67;;;2.03;;
38037;SDS011;23843;51.320;12.340;2022-11-15T17:50:54;4.07;;;2.80;;
38037;SDS011;23843;51.320;12.340;2022-11-15T17:53:21;3.27;;;2.43;;
38037;SDS011;23843;51.320;12.340;2022-11-15T17:55:46;2.50;;;1.80;;
38037;SDS011;23843;51.320;12.340;2022-11-15T17:58:13;2.20;;;1.60;;
38037;SDS011;23843;51.320;12.340;2022-11-15T18:00:38;2.33;;;1.63;;
38037;SDS011;23843;51.320;12.340;2022-11-15T18:03:04;2.03;;;1.30;;
38037;SDS011;23843;51.320;12.340;2022-11-15T18:05:29;1.73;;;1.30;;
38037;SDS011;23843;51.320;12.340;2022-11-15T18:07:55;1.53;;;1.20;;
38037;SDS011;23843;51.320;12.340;2022-11-15T18:10:20;1.40;;;1.17;;
38037;SDS011;23843;51.320;12.340;2022-11-15T18:12:46;1.40;;;1.00;;
38037;SDS011;23843;51.320;12.340;2022-11-15T18:15:12;1.27;;;0.83;;
38037;SDS011;23843;51.320;12.340;2022-11-15T18:17:38;1.00;;;0.70;;
38037;SDS011;23843;51.320;12.340;2022-11-15T18:20:04;1.03;;;0.93;;
38037;SDS011;23843;51.320;12.340;2022-11-15T18:22:30;1.73;;;0.90;;
38037;SDS011;23843;51.320;12.340;2022-11-15T18:24:55;1.10;;;1.00;;
38037;SDS011;23843;51.320;12.340;2022-11-15T18:27:21;2.53;;;1.60;;
38037;SDS011;23843;51.320;12.340;2022-11-15T18:29:46;2.03;;;1.70;;
38037;SDS011;23843;51.320;12.340;2022-11-15T18:32:13;4.53;;;3.23;;
38037;SDS011;23843;51.320;12.340;2022-11-15T18:34:38;10.03;;;6.27;;
38037;SDS011;23843;51.320;12.340;2022-11-15T18:37:04;10.07;;;6.77;;
38037;SDS011;23843;51.320;12.340;2022-11-15T18:39:29;8.87;;;5.33;;
38037;SDS011;23843;51.320;12.340;2022-11-15T18:41:55;6.57;;;3.97;;
38037;SDS011;23843;51.320;12.340;2022-11-15T18:44:21;4.87;;;3.00;;
38037;SDS011;23843;51.320;12.340;2022-11-15T18:46:46;6.10;;;4.07;;
38037;SDS011;23843;51.320;12.340;2022-11-15T18:49:14;6.10;;;4.50;;
38037;SDS011;23843;51.320;12.340;2022-11-15T18:51:40;5.30;;;3.40;;
38037;SDS011;23843;51.320;12.340;2022-11-15T18:54:07;3.57;;;2.30;;
38037;SDS011;23843;51.320;12.340;2022-11-15T18:56:33;2.63;;;1.87;;
38037;SDS011;23843;51.320;12.340;2022-11-15T18:58:59;2.77;;;2.17;;
38037;SDS011;23843;51.320;12.340;2022-11-15T19:01:25;8.33;;;5.00;;
38037;SDS011;23843;51.320;12.340;2022-11-15T19:03:52;9.63;;;6.27;;
38037;SDS011;23843;51.320;12.340;2022-11-15T19:06:21;7.77;;;5.00;;
38037;SDS011;23843;51.320;12.340;2022-11-15T19:08:49;10.90;;;6.47;;
38037;SDS011;23843;51.320;12.340;2022-11-15T19:11:16;8.03;;;5.07;;
38037;SDS011;23843;51.320;12.340;2022-11-15T19:13:43;5.83;;;4.10;;
38037;SDS011;23843;51.320;12.340;2022-11-15T19:16:09;4.60;;;3.33;;
38037;SDS011;23843;51.320;12.340;2022-11-15T19:18:36;3.63;;;2.50;;
38037;SDS011;23843;51.320;12.340;2022-11-15T19:21:01;3.30;;;2.00;;
38037;SDS011;23843;51.320;12.340;2022-11-15T19:23:29;3.17;;;2.37;;
38037;SDS011;23843;51.320;12.340;2022-11-15T19:25:59;3.83;;;2.90;;
38037;SDS011;23843;51.320;12.340;2022-11-15T19:28:25;3.10;;;2.30;;
38037;SDS011;23843;51.320;12.340;2022-11-15T19:30:51;4.03;;;2.97;;
38037;SDS011;23843;51.320;12.340;2022-11-15T19:33:17;3.97;;;2.87;;
38037;SDS011;23843;51.320;12.340;2022-11-15T19:35:43;3.80;;;2.70;;
38037;SDS011;23843;51.320;12.340;2022-11-15T19:38:09;3.07;;;2.20;;
38037;SDS011;23843;51.320;12.340;2022-11-15T19:40:36;2.77;;;2.23;;
38037;SDS011;23843;51.320;12.340;2022-11-15T19:43:01;4.33;;;3.30;;
38037;SDS011;23843;51.320;12.340;2022-11-15T19:45:27;4.60;;;3.50;;
38037;SDS011;23843;51.320;12.340;2022-11-15T19:47:52;6.30;;;4.70;;
38037;SDS011;23843;51.320;12.340;2022-11-15T19:50:18;16.20;;;11.30;;
38037;SDS011;23843;51.320;12.340;2022-11-15T19:52:43;13.33;;;8.50;;
38037;SDS011;23843;51.320;12.340;2022-11-15T19:55:08;11.73;;;7.80;;
38037;SDS011;23843;51.320;12.340;2022-11-15T19:57:35;8.93;;;5.77;;
38037;SDS011;23843;51.320;12.340;2022-11-15T20:00:01;8.70;;;5.70;;
38037;SDS011;23843;51.320;12.340;2022-11-15T20:02:27;6.97;;;4.57;;
38037;SDS011;23843;51.320;12.340;2022-11-15T20:04:52;6.67;;;4.70;;
38037;SDS011;23843;51.320;12.340;2022-11-15T20:07:17;5.10;;;4.00;;
38037;SDS011;23843;51.320;12.340;2022-11-15T20:09:43;3.40;;;2.90;;
38037;SDS011;23843;51.320;12.340;2022-11-15T20:12:08;2.67;;;2.23;;
38037;SDS011;23843;51.320;12.340;2022-11-15T20:14:35;2.90;;;2.10;;
38037;SDS011;23843;51.320;12.340;2022-11-15T20:17:01;1.90;;;1.70;;
38037;SDS011;23843;51.320;12.340;2022-11-15T20:19:26;2.03;;;1.77;;
38037;SDS011;23843;51.320;12.340;2022-11-15T20:21:51;2.47;;;1.80;;
38037;SDS011;23843;51.320;12.340;2022-11-15T20:24:17;2.20;;;1.80;;
38037;SDS011;23843;51.320;12.340;2022-11-15T20:26:42;1.80;;;1.60;;